createdAt,value
2018-09-21T00:00:52.421Z,12.30
2018-09-21T00:01:52.400Z,11.00
2018-09-21T00:02:52.378Z,9.10
2018-09-21T00:03:52.354Z,10.00
2018-09-21T00:04:52.333Z,9.90
2018-09-21T00:05:52.312Z,8.00
2018-09-21T00:06:52.292Z,10.90
2018-09-21T00:07:52.270Z,10.90
2018-09-21T00:08:52.248Z,10.70
2018-09-21T00:09:52.228Z,9.70
2018-09-21T00:10:52.204Z,10.00
2018-09-21T00:11:52.182Z,12.20
2018-09-21T00:12:52.160Z,9.90
2018-09-21T00:13:52.139Z,10.20
2018-09-21T00:14:52.120Z,8.70
2018-09-21T00:15:52.095Z,8.90
2018-09-21T00:16:52.074Z,11.00
2018-09-21T00:17:52.053Z,11.50
2018-09-21T00:18:52.030Z,10.20
2018-09-21T00:19:52.009Z,13.50
2018-09-21T00:20:51.988Z,10.10
2018-09-21T00:21:51.966Z,12.30
2018-09-21T00:22:51.944Z,8.70
2018-09-21T00:23:51.923Z,10.30
2018-09-21T00:24:51.901Z,8.20
2018-09-21T00:25:51.880Z,6.60
2018-09-21T00:26:51.859Z,9.40
2018-09-21T00:27:51.835Z,10.20
2018-09-21T00:28:51.815Z,9.70
2018-09-21T00:29:51.795Z,10.60
2018-09-21T00:30:51.771Z,9.00
2018-09-21T00:31:51.749Z,7.90
2018-09-21T00:32:51.735Z,10.20
2018-09-21T00:33:51.708Z,10.60
2018-09-21T00:34:51.687Z,11.80
2018-09-21T00:35:51.664Z,10.70
2018-09-21T00:36:51.640Z,12.10
2018-09-21T00:37:51.621Z,11.40
2018-09-21T00:38:51.600Z,9.40
2018-09-21T00:39:51.574Z,8.30
2018-09-21T00:40:51.554Z,8.40
2018-09-21T00:41:51.534Z,9.00
2018-09-21T00:42:51.511Z,13.50
2018-09-21T00:43:51.490Z,8.40
2018-09-21T00:44:51.467Z,13.40
2018-09-21T00:45:51.447Z,10.70
2018-09-21T00:46:51.425Z,8.90
2018-09-21T00:47:51.401Z,10.10
2018-09-21T00:48:51.380Z,10.00
2018-09-21T00:49:51.359Z,9.10
2018-09-21T00:50:51.337Z,7.80
2018-09-21T00:51:51.315Z,10.30
2018-09-21T00:52:51.293Z,10.10
2018-09-21T00:53:51.270Z,10.50
2018-09-21T00:54:51.251Z,8.80
2018-09-21T00:55:51.227Z,10.90
2018-09-21T00:56:51.206Z,10.90
2018-09-21T00:57:51.185Z,10.20
2018-09-21T00:58:51.164Z,10.30
2018-09-21T00:59:51.141Z,8.10
2018-09-21T01:00:51.121Z,9.60
2018-09-21T01:01:51.095Z,8.90
2018-09-21T01:02:51.075Z,12.30
2018-09-21T01:03:51.054Z,6.90
2018-09-21T01:04:51.032Z,8.30
2018-09-21T01:05:51.011Z,13.10
2018-09-21T01:06:50.989Z,10.00
2018-09-21T01:07:50.965Z,8.50
2018-09-21T01:08:50.944Z,10.50
2018-09-21T01:09:50.924Z,10.40
2018-09-21T01:10:50.902Z,6.00
2018-09-21T01:11:50.880Z,8.20
2018-09-21T01:12:50.857Z,8.30
2018-09-21T01:13:50.837Z,11.30
2018-09-21T01:14:50.816Z,11.80
2018-09-21T01:15:50.792Z,9.20
2018-09-21T01:16:50.775Z,10.00
2018-09-21T01:17:50.750Z,8.50
2018-09-21T01:18:50.726Z,9.70
2018-09-21T01:19:50.706Z,9.10
2018-09-21T01:20:50.683Z,12.00
2018-09-21T01:21:50.662Z,9.50
2018-09-21T01:22:50.640Z,9.00
2018-09-21T01:23:50.618Z,10.20
2018-09-21T01:24:50.595Z,8.60
2018-09-21T01:25:50.574Z,8.00
2018-09-21T01:26:50.553Z,8.40
2018-09-21T01:27:50.531Z,10.90
2018-09-21T01:28:50.509Z,10.30
2018-09-21T01:29:50.489Z,6.30
2018-09-21T01:30:50.466Z,9.20
2018-09-21T01:31:50.444Z,8.90
2018-09-21T01:32:50.514Z,9.50
2018-09-21T01:33:50.401Z,9.50
2018-09-21T01:34:50.379Z,9.10
2018-09-21T01:35:50.357Z,10.90
2018-09-21T01:36:50.335Z,8.00
2018-09-21T01:37:50.313Z,11.00
2018-09-21T01:38:50.293Z,11.50
2018-09-21T01:39:50.271Z,9.50
2018-09-21T01:40:50.247Z,11.20
2018-09-21T01:41:50.227Z,9.40
2018-09-21T01:42:50.205Z,9.20
2018-09-21T01:43:50.183Z,7.10
2018-09-21T01:44:50.160Z,10.10
2018-09-21T01:45:50.139Z,7.50
2018-09-21T01:46:50.117Z,9.80
2018-09-21T01:47:50.094Z,8.70
2018-09-21T01:48:50.073Z,8.50
2018-09-21T01:49:50.051Z,10.80
2018-09-21T01:50:50.031Z,8.50
2018-09-21T01:51:50.008Z,15.10
2018-09-21T01:52:49.986Z,10.30
2018-09-21T01:53:49.965Z,10.50
2018-09-21T01:54:49.943Z,9.20
2018-09-21T01:55:49.920Z,8.70
2018-09-21T01:56:49.898Z,7.80
2018-09-21T01:57:49.877Z,10.60
2018-09-21T01:58:49.853Z,8.50
2018-09-21T01:59:49.832Z,6.50
2018-09-21T02:00:49.810Z,9.40
2018-09-21T02:01:49.833Z,8.70
2018-09-21T02:02:49.767Z,9.50
2018-09-21T02:03:49.744Z,12.60
2018-09-21T02:04:49.723Z,10.20
2018-09-21T02:05:49.708Z,11.40
2018-09-21T02:06:49.685Z,8.80
2018-09-21T02:07:49.656Z,9.70
2018-09-21T02:08:49.634Z,9.10
2018-09-21T02:09:49.613Z,10.40
2018-09-21T02:10:49.592Z,7.70
2018-09-21T02:11:49.569Z,9.30
2018-09-21T02:12:49.546Z,8.80
2018-09-21T02:13:49.526Z,9.10
2018-09-21T02:14:49.503Z,7.30
2018-09-21T02:15:49.479Z,8.50
2018-09-21T02:16:49.457Z,12.50
2018-09-21T02:17:49.437Z,10.00
2018-09-21T02:18:49.414Z,8.10
2018-09-21T02:19:49.392Z,8.00
2018-09-21T02:20:49.370Z,9.40
2018-09-21T02:21:49.347Z,7.40
2018-09-21T02:22:49.326Z,9.30
2018-09-21T02:23:49.302Z,11.50
2018-09-21T02:24:49.282Z,10.20
2018-09-21T02:25:49.265Z,9.30
2018-09-21T02:26:49.238Z,10.90
2018-09-21T02:27:49.215Z,11.30
2018-09-21T02:28:49.192Z,10.80
2018-09-21T02:29:49.172Z,7.40
2018-09-21T02:30:49.150Z,8.90
2018-09-21T02:31:49.125Z,11.20
2018-09-21T02:32:49.104Z,10.70
2018-09-21T02:33:49.083Z,11.50
2018-09-21T02:34:49.073Z,9.80
2018-09-21T02:35:49.038Z,7.70
2018-09-21T02:36:49.016Z,8.10
2018-09-21T02:37:48.994Z,8.60
2018-09-21T02:38:48.972Z,12.10
2018-09-21T02:39:48.948Z,11.10
2018-09-21T02:40:48.928Z,8.50
2018-09-21T02:41:48.904Z,9.90
2018-09-21T02:42:48.883Z,8.10
2018-09-21T02:43:48.859Z,10.60
2018-09-21T02:44:48.836Z,7.30
2018-09-21T02:45:48.817Z,10.80
2018-09-21T02:46:48.794Z,8.00
2018-09-21T02:47:48.769Z,7.70
2018-09-21T02:48:48.758Z,8.60
2018-09-21T02:49:48.726Z,7.90
2018-09-21T02:50:48.706Z,12.10
2018-09-21T02:51:48.682Z,8.80
2018-09-21T02:52:48.661Z,9.80
2018-09-21T02:53:48.638Z,8.50
2018-09-21T02:54:48.616Z,9.50
2018-09-21T02:55:48.595Z,10.30
2018-09-21T02:56:48.572Z,8.10
2018-09-21T02:57:48.548Z,8.10
2018-09-21T02:58:48.526Z,11.20
2018-09-21T02:59:48.503Z,11.70
2018-09-21T03:00:48.592Z,8.30
2018-09-21T03:01:48.460Z,8.80
2018-09-21T03:02:48.436Z,10.60
2018-09-21T03:03:48.414Z,8.80
2018-09-21T03:04:48.394Z,10.50
2018-09-21T03:05:48.370Z,9.30
2018-09-21T03:06:48.348Z,7.40
2018-09-21T03:07:48.324Z,9.70
2018-09-21T03:08:48.303Z,10.70
2018-09-21T03:09:48.285Z,9.90
2018-09-21T03:10:48.258Z,10.70
2018-09-21T03:11:48.236Z,8.70
2018-09-21T03:12:48.219Z,8.20
2018-09-21T03:13:48.192Z,11.40
2018-09-21T03:14:48.169Z,9.50
2018-09-21T03:15:48.146Z,9.50
2018-09-21T03:16:48.125Z,8.50
2018-09-21T03:17:48.102Z,8.30
2018-09-21T03:18:48.082Z,8.60
2018-09-21T03:19:48.057Z,8.30
2018-09-21T03:20:48.036Z,8.40
2018-09-21T03:21:48.013Z,13.20
2018-09-21T03:22:47.992Z,8.10
2018-09-21T03:23:47.968Z,10.70
2018-09-21T03:24:47.948Z,13.20
2018-09-21T03:25:47.925Z,8.50
2018-09-21T03:26:47.902Z,9.00
2018-09-21T03:27:47.878Z,9.40
2018-09-21T03:28:47.861Z,7.70
2018-09-21T03:29:47.836Z,9.20
2018-09-21T03:30:47.815Z,7.80
2018-09-21T03:31:47.791Z,7.50
2018-09-21T03:32:47.769Z,9.60
2018-09-21T03:33:47.747Z,6.80
2018-09-21T03:34:47.738Z,7.10
2018-09-21T03:35:47.703Z,8.80
2018-09-21T03:36:47.683Z,6.50
2018-09-21T03:37:47.659Z,8.10
2018-09-21T03:38:47.636Z,10.00
2018-09-21T03:39:47.615Z,8.20
2018-09-21T03:40:47.593Z,11.00
2018-09-21T03:41:47.571Z,7.60
2018-09-21T03:42:47.550Z,8.20
2018-09-21T03:43:47.527Z,6.90
2018-09-21T03:44:47.505Z,7.10
2018-09-21T03:45:47.483Z,10.40
2018-09-21T03:46:47.459Z,9.00
2018-09-21T03:47:47.437Z,12.10
2018-09-21T03:48:47.416Z,10.50
2018-09-21T03:49:47.397Z,11.40
2018-09-21T03:50:47.371Z,9.80
2018-09-21T03:51:47.350Z,9.60
2018-09-21T03:52:47.329Z,8.00
2018-09-21T03:53:47.305Z,10.40
2018-09-21T03:54:47.283Z,9.20
2018-09-21T03:55:47.261Z,10.70
2018-09-21T03:56:47.240Z,10.50
2018-09-21T03:57:47.218Z,6.80
2018-09-21T03:58:47.196Z,10.70
2018-09-21T03:59:47.174Z,10.50
2018-09-21T04:00:47.153Z,6.50
2018-09-21T04:01:47.130Z,8.50
2018-09-21T04:02:47.108Z,10.20
2018-09-21T04:03:47.089Z,6.80
2018-09-21T04:04:47.062Z,7.30
2018-09-21T04:05:47.042Z,9.40
2018-09-21T04:06:47.020Z,8.50
2018-09-21T04:07:46.997Z,8.20
2018-09-21T04:08:46.976Z,8.60
2018-09-21T04:09:46.957Z,8.40
2018-09-21T04:10:46.931Z,9.00
2018-09-21T04:11:46.908Z,12.00
2018-09-21T04:12:46.886Z,9.70
2018-09-21T04:13:46.865Z,8.20
2018-09-21T04:14:46.844Z,9.00
2018-09-21T04:15:46.826Z,9.10
2018-09-21T04:16:46.801Z,9.70
2018-09-21T04:17:46.776Z,8.10
2018-09-21T04:18:46.754Z,6.90
2018-09-21T04:19:46.731Z,8.80
2018-09-21T04:20:46.711Z,8.30
2018-09-21T04:21:46.689Z,8.90
2018-09-21T04:22:46.668Z,10.80
2018-09-21T04:23:46.646Z,11.80
2018-09-21T04:24:46.622Z,9.60
2018-09-21T04:25:46.599Z,10.10
2018-09-21T04:26:46.579Z,10.90
2018-09-21T04:27:46.556Z,7.90
2018-09-21T04:28:46.536Z,9.90
2018-09-21T04:29:46.514Z,7.00
2018-09-21T04:30:46.491Z,9.00
2018-09-21T04:31:46.468Z,9.10
2018-09-21T04:32:46.449Z,7.80
2018-09-21T04:33:46.425Z,8.40
2018-09-21T04:34:46.402Z,7.70
2018-09-21T04:35:46.381Z,7.40
2018-09-21T04:36:46.359Z,9.10
2018-09-21T04:37:46.338Z,9.60
2018-09-21T04:38:46.316Z,11.10
2018-09-21T04:39:46.292Z,6.50
2018-09-21T04:40:46.270Z,9.90
2018-09-21T04:41:46.248Z,9.70
2018-09-21T04:42:46.227Z,7.70
2018-09-21T04:43:46.205Z,7.60
2018-09-21T04:44:46.184Z,7.40
2018-09-21T04:45:46.176Z,6.70
2018-09-21T04:46:46.139Z,7.30
2018-09-21T04:47:46.116Z,6.20
2018-09-21T04:48:46.096Z,10.00
2018-09-21T04:49:46.073Z,11.40
2018-09-21T04:50:46.052Z,9.80
2018-09-21T04:51:46.029Z,8.90
2018-09-21T04:52:46.008Z,8.40
2018-09-21T04:53:45.986Z,9.20
2018-09-21T04:54:45.965Z,9.50
2018-09-21T04:55:45.943Z,7.20
2018-09-21T04:56:45.921Z,10.60
2018-09-21T04:57:45.899Z,9.10
2018-09-21T04:58:45.878Z,10.50
2018-09-21T04:59:45.855Z,11.50
2018-09-21T05:00:45.834Z,10.50
2018-09-21T05:01:45.811Z,9.50
2018-09-21T05:02:45.793Z,7.50
2018-09-21T05:03:45.768Z,13.10
2018-09-21T05:04:45.747Z,6.80
2018-09-21T05:05:45.726Z,6.90
2018-09-21T05:06:45.704Z,8.70
2018-09-21T05:07:45.680Z,6.70
2018-09-21T05:08:45.658Z,8.20
2018-09-21T05:09:45.642Z,9.50
2018-09-21T05:10:45.616Z,6.60
2018-09-21T05:11:45.593Z,7.40
2018-09-21T05:12:45.572Z,8.40
2018-09-21T05:13:45.618Z,8.40
2018-09-21T05:14:45.530Z,8.50
2018-09-21T05:15:45.508Z,10.20
2018-09-21T05:16:45.485Z,9.90
2018-09-21T05:17:45.464Z,7.30
2018-09-21T05:18:45.443Z,11.00
2018-09-21T05:19:45.435Z,9.90
2018-09-21T05:20:45.399Z,10.20
2018-09-21T05:21:45.376Z,8.50
2018-09-21T05:22:45.355Z,7.60
2018-09-21T05:23:45.333Z,8.30
2018-09-21T05:24:45.313Z,8.30
2018-09-21T05:25:45.291Z,9.20
2018-09-21T05:26:45.270Z,9.60
2018-09-21T05:27:45.246Z,8.60
2018-09-21T05:28:45.225Z,7.10
2018-09-21T05:29:45.204Z,9.60
2018-09-21T05:30:45.183Z,9.30
2018-09-21T05:31:45.161Z,7.60
2018-09-21T05:32:45.138Z,9.70
2018-09-21T05:33:45.121Z,8.70
2018-09-21T05:34:45.283Z,7.90
2018-09-21T05:35:45.075Z,6.90
2018-09-21T05:36:45.054Z,9.60
2018-09-21T05:37:45.031Z,7.70
2018-09-21T05:38:45.010Z,7.80
2018-09-21T05:39:44.989Z,8.40
2018-09-21T05:40:44.968Z,8.80
2018-09-21T05:41:44.948Z,9.30
2018-09-21T05:42:44.928Z,8.40
2018-09-21T05:43:44.903Z,10.90
2018-09-21T05:44:44.884Z,8.30
2018-09-21T05:45:44.864Z,6.90
2018-09-21T05:46:44.849Z,8.20
2018-09-21T05:47:44.820Z,8.50
2018-09-21T05:48:44.798Z,8.00
2018-09-21T05:49:44.777Z,8.30
2018-09-21T05:50:44.756Z,8.90
2018-09-21T05:51:44.734Z,8.40
2018-09-21T05:52:44.713Z,7.50
2018-09-21T05:53:44.692Z,7.80
2018-09-21T05:54:44.670Z,10.90
2018-09-21T05:55:44.654Z,8.10
2018-09-21T05:56:44.630Z,9.60
2018-09-21T05:57:44.607Z,6.70
2018-09-21T05:58:44.586Z,6.80
2018-09-21T05:59:44.565Z,10.50
2018-09-21T06:00:44.543Z,9.90
2018-09-21T06:01:44.522Z,10.40
2018-09-21T06:02:44.560Z,6.60
2018-09-21T06:03:44.478Z,13.90
2018-09-21T06:04:44.458Z,8.30
2018-09-21T06:05:44.438Z,8.90
2018-09-21T06:06:44.417Z,8.90
2018-09-21T06:07:44.416Z,10.70
2018-09-21T06:08:44.373Z,7.50
2018-09-21T06:09:44.352Z,7.40
2018-09-21T06:10:44.332Z,5.60
2018-09-21T06:11:44.310Z,7.70
2018-09-21T06:12:44.289Z,7.40
2018-09-21T06:13:44.277Z,9.10
2018-09-21T06:14:44.248Z,9.60
2018-09-21T06:15:44.226Z,9.20
2018-09-21T06:16:44.203Z,10.00
2018-09-21T06:17:44.186Z,9.40
2018-09-21T06:18:44.165Z,7.20
2018-09-21T06:19:44.148Z,7.40
2018-09-21T06:20:44.121Z,8.80
2018-09-21T06:21:44.102Z,9.90
2018-09-21T06:22:45.336Z,8.60
2018-09-21T06:23:44.062Z,7.60
2018-09-21T06:24:44.042Z,8.90
2018-09-21T06:25:44.021Z,8.00
2018-09-21T06:26:44.002Z,7.00
2018-09-21T06:27:43.980Z,9.00
2018-09-21T06:28:43.961Z,8.60
2018-09-21T06:29:43.942Z,10.90
2018-09-21T06:30:43.923Z,8.50
2018-09-21T06:31:43.903Z,7.80
2018-09-21T06:32:43.886Z,7.00
2018-09-21T06:33:43.865Z,6.60
2018-09-21T06:34:43.848Z,7.70
2018-09-21T06:35:43.826Z,8.80
2018-09-21T06:36:43.809Z,9.70
2018-09-21T06:37:43.791Z,10.30
2018-09-21T06:38:43.771Z,8.10
2018-09-21T06:39:43.754Z,8.00
2018-09-21T06:40:43.735Z,7.90
2018-09-21T06:41:43.721Z,9.00
2018-09-21T06:42:43.699Z,10.50
2018-09-21T06:43:43.680Z,10.10
2018-09-21T06:44:43.713Z,7.30
2018-09-21T06:45:43.647Z,8.40
2018-09-21T06:46:43.628Z,7.70
2018-09-21T06:47:43.607Z,8.70
2018-09-21T06:48:43.594Z,7.00
2018-09-21T06:49:43.605Z,9.10
2018-09-21T06:50:43.559Z,8.40
2018-09-21T06:51:43.537Z,7.30
2018-09-21T06:52:43.520Z,6.00
2018-09-21T06:53:43.504Z,8.20
2018-09-21T06:54:43.486Z,7.00
2018-09-21T06:55:43.472Z,10.90
2018-09-21T06:56:43.453Z,5.70
2018-09-21T06:57:43.436Z,7.30
2018-09-21T06:58:43.420Z,7.10
2018-09-21T06:59:43.404Z,8.60
2018-09-21T07:00:43.388Z,7.70
2018-09-21T07:01:43.379Z,8.50
2018-09-21T07:02:43.355Z,6.30
2018-09-21T07:03:43.339Z,12.20
2018-09-21T07:04:43.323Z,7.20
2018-09-21T07:05:43.308Z,6.40
2018-09-21T07:06:43.292Z,7.00
2018-09-21T07:07:43.276Z,8.40
2018-09-21T07:08:43.259Z,16.50
2018-09-21T07:09:43.246Z,10.10
2018-09-21T07:10:43.230Z,6.60
2018-09-21T07:11:43.211Z,7.10
2018-09-21T07:12:43.198Z,8.30
2018-09-21T07:13:43.186Z,6.60
2018-09-21T07:14:43.167Z,10.30
2018-09-21T07:15:43.167Z,7.20
2018-09-21T07:16:43.136Z,9.50
2018-09-21T07:17:43.120Z,8.80
2018-09-21T07:18:43.106Z,10.60
2018-09-21T07:19:43.093Z,11.10
2018-09-21T07:20:43.075Z,7.00
2018-09-21T07:21:43.059Z,10.70
2018-09-21T07:22:43.045Z,8.50
2018-09-21T07:23:43.029Z,8.50
2018-09-21T07:24:43.013Z,8.60
2018-09-21T07:25:43.000Z,6.60
2018-09-21T07:26:42.984Z,7.80
2018-09-21T07:27:42.971Z,8.30
2018-09-21T07:28:42.955Z,7.10
2018-09-21T07:29:42.940Z,6.30
2018-09-21T07:30:42.926Z,8.50
2018-09-21T07:31:42.916Z,6.40
2018-09-21T07:32:42.901Z,7.40
2018-09-21T07:33:42.881Z,8.40
2018-09-21T07:34:42.868Z,6.40
2018-09-21T07:35:42.852Z,8.70
2018-09-21T07:36:42.838Z,9.00
2018-09-21T07:37:42.824Z,9.10
2018-09-21T07:38:42.813Z,9.00
2018-09-21T07:39:42.795Z,7.40
2018-09-21T07:40:42.782Z,9.60
2018-09-21T07:41:42.767Z,7.00
2018-09-21T07:42:42.756Z,8.20
2018-09-21T07:43:42.738Z,6.60
2018-09-21T07:44:42.770Z,12.30
2018-09-21T07:45:42.709Z,8.50
2018-09-21T07:46:42.701Z,6.30
2018-09-21T07:47:42.679Z,13.10
2018-09-21T07:48:42.668Z,10.30
2018-09-21T07:49:42.653Z,8.60
2018-09-21T07:50:42.637Z,9.00
2018-09-21T07:51:42.623Z,7.90
2018-09-21T07:52:42.609Z,9.10
2018-09-21T07:53:42.595Z,9.60
2018-09-21T07:54:42.581Z,8.30
2018-09-21T07:55:42.567Z,8.30
2018-09-21T07:56:42.553Z,10.30
2018-09-21T07:57:42.539Z,8.40
2018-09-21T07:58:42.524Z,7.40
2018-09-21T07:59:42.509Z,8.70
2018-09-21T08:00:42.497Z,9.80
2018-09-21T08:01:42.490Z,9.70
2018-09-21T08:02:42.468Z,7.60
2018-09-21T08:03:42.456Z,8.40
2018-09-21T08:04:42.443Z,8.60
2018-09-21T08:05:42.426Z,7.30
2018-09-21T08:06:42.413Z,10.20
2018-09-21T08:07:42.397Z,9.10
2018-09-21T08:08:42.385Z,7.80
2018-09-21T08:09:42.370Z,6.60
2018-09-21T08:10:42.358Z,12.60
2018-09-21T08:11:42.344Z,10.80
2018-09-21T08:12:42.385Z,8.40
2018-09-21T08:13:42.317Z,8.30
2018-09-21T08:14:42.303Z,9.10
2018-09-21T08:15:42.288Z,7.60
2018-09-21T08:16:42.275Z,7.50
2018-09-21T08:17:42.261Z,7.60
2018-09-21T08:18:42.251Z,7.70
2018-09-21T08:19:42.232Z,8.50
2018-09-21T08:20:42.220Z,7.80
2018-09-21T08:21:42.206Z,6.00
2018-09-21T08:22:42.190Z,7.50
2018-09-21T08:23:42.175Z,8.50
2018-09-21T08:24:42.161Z,9.00
2018-09-21T08:25:42.146Z,6.30
2018-09-21T08:26:42.150Z,8.80
2018-09-21T08:27:42.117Z,10.70
2018-09-21T08:28:42.105Z,8.60
2018-09-21T08:29:42.089Z,10.10
2018-09-21T08:30:42.073Z,9.10
2018-09-21T08:31:42.058Z,11.30
2018-09-21T08:32:42.042Z,8.70
2018-09-21T08:33:42.030Z,7.40
2018-09-21T08:34:42.027Z,8.80
2018-09-21T08:35:41.999Z,9.10
2018-09-21T08:36:41.985Z,12.80
2018-09-21T08:37:41.971Z,12.30
2018-09-21T08:38:41.956Z,7.90
2018-09-21T08:39:41.944Z,7.60
2018-09-21T08:40:41.927Z,10.10
2018-09-21T08:41:41.914Z,10.40
2018-09-21T08:42:41.956Z,9.80
2018-09-21T08:43:41.886Z,9.30
2018-09-21T08:44:41.874Z,10.00
2018-09-21T08:45:41.946Z,8.70
2018-09-21T08:46:41.852Z,10.60
2018-09-21T08:47:41.831Z,9.10
2018-09-21T08:48:41.817Z,8.00
2018-09-21T08:49:41.802Z,9.60
2018-09-21T08:50:41.788Z,9.20
2018-09-21T08:51:41.775Z,9.60
2018-09-21T08:52:41.760Z,9.10
2018-09-21T08:53:41.746Z,10.50
2018-09-21T08:54:41.732Z,8.10
2018-09-21T08:55:41.718Z,13.70
2018-09-21T08:56:41.706Z,15.40
2018-09-21T08:57:41.692Z,10.80
2018-09-21T08:58:41.679Z,11.40
2018-09-21T08:59:41.666Z,7.40
2018-09-21T09:00:41.652Z,7.20
2018-09-21T09:01:41.638Z,11.20
2018-09-21T09:02:41.649Z,10.00
2018-09-21T09:03:41.612Z,9.50
2018-09-21T09:04:41.599Z,10.70
2018-09-21T09:05:41.591Z,13.10
2018-09-21T09:06:41.573Z,11.70
2018-09-21T09:07:41.562Z,8.60
2018-09-21T09:08:41.545Z,8.50
2018-09-21T09:09:41.532Z,11.00
2018-09-21T09:10:41.520Z,11.90
2018-09-21T09:11:41.505Z,10.70
2018-09-21T09:12:41.492Z,8.20
2018-09-21T09:13:41.477Z,10.20
2018-09-21T09:14:41.467Z,9.00
2018-09-21T09:15:41.451Z,10.10
2018-09-21T09:16:41.439Z,14.40
2018-09-21T09:17:41.424Z,12.80
2018-09-21T09:18:41.417Z,13.10
2018-09-21T09:19:41.394Z,10.00
2018-09-21T09:20:41.382Z,10.60
2018-09-21T09:21:41.368Z,10.30
2018-09-21T09:22:41.355Z,11.10
2018-09-21T09:23:41.340Z,9.60
2018-09-21T09:25:41.312Z,8.60
2018-09-21T09:26:41.299Z,9.90
2018-09-21T09:27:41.281Z,9.60
2018-09-21T09:28:41.267Z,9.50
2018-09-21T09:29:41.253Z,9.40
2018-09-21T09:30:41.238Z,14.00
2018-09-21T09:31:41.223Z,13.70
2018-09-21T09:32:41.211Z,15.90
2018-09-21T09:33:41.195Z,11.70
2018-09-21T09:34:41.179Z,10.70
2018-09-21T09:35:41.163Z,11.00
2018-09-21T09:36:41.355Z,8.70
2018-09-21T09:37:41.135Z,12.10
2018-09-21T09:38:41.119Z,8.50
2018-09-21T09:39:41.103Z,11.30
2018-09-21T09:40:41.092Z,11.60
2018-09-21T09:41:41.075Z,7.80
2018-09-21T09:42:41.105Z,13.60
2018-09-21T09:43:41.044Z,10.90
2018-09-21T09:44:41.029Z,10.20
2018-09-21T09:45:41.016Z,10.30
2018-09-21T09:46:40.999Z,11.60
2018-09-21T09:47:40.985Z,15.90
2018-09-21T09:48:40.977Z,7.80
2018-09-21T09:49:40.956Z,14.10
2018-09-21T09:50:40.940Z,18.30
2018-09-21T09:51:40.928Z,14.20
2018-09-21T09:52:40.910Z,10.40
2018-09-21T09:53:40.895Z,11.70
2018-09-21T09:54:40.914Z,12.00
2018-09-21T09:55:40.865Z,16.20
2018-09-21T09:56:40.849Z,10.90
2018-09-21T09:57:40.833Z,13.20
2018-09-21T09:58:40.818Z,18.70
2018-09-21T09:59:40.801Z,11.30
2018-09-21T10:00:40.787Z,14.80
2018-09-21T10:01:40.772Z,11.90
2018-09-21T10:02:40.762Z,17.00
2018-09-21T10:03:40.872Z,17.40
2018-09-21T10:04:40.725Z,20.40
2018-09-21T10:05:40.709Z,14.60
2018-09-21T10:06:40.694Z,19.30
2018-09-21T10:07:40.677Z,26.50
2018-09-21T10:08:40.661Z,20.80
2018-09-21T10:09:40.647Z,24.20
2018-09-21T10:10:40.631Z,16.80
2018-09-21T10:11:40.620Z,16.20
2018-09-21T10:12:40.600Z,17.50
2018-09-21T10:13:40.583Z,14.70
2018-09-21T10:14:40.569Z,10.60
2018-09-21T10:15:40.554Z,16.30
2018-09-21T10:16:40.537Z,14.50
2018-09-21T10:17:40.522Z,13.10
2018-09-21T10:18:40.505Z,12.00
2018-09-21T10:19:40.489Z,15.90
2018-09-21T10:20:40.486Z,16.00
2018-09-21T10:21:40.459Z,11.00
2018-09-21T10:22:40.447Z,15.20
2018-09-21T10:23:40.426Z,13.20
2018-09-21T10:24:40.416Z,10.60
2018-09-21T10:25:40.396Z,17.00
2018-09-21T10:26:40.390Z,10.10
2018-09-21T10:27:40.520Z,17.00
2018-09-21T10:28:40.665Z,14.60
2018-09-21T10:29:40.410Z,17.00
2018-09-21T10:30:40.318Z,16.10
2018-09-21T10:31:40.303Z,16.90
2018-09-21T10:32:40.322Z,19.70
2018-09-21T10:33:40.369Z,14.60
2018-09-21T10:34:40.303Z,10.90
2018-09-21T10:35:40.340Z,9.70
2018-09-21T10:36:40.223Z,15.40
2018-09-21T10:37:40.214Z,10.10
2018-09-21T10:38:40.216Z,15.50
2018-09-21T10:39:40.176Z,13.10
2018-09-21T10:40:40.159Z,10.30
2018-09-21T10:41:40.143Z,17.40
2018-09-21T10:42:40.286Z,19.30
2018-09-21T10:43:40.110Z,23.30
2018-09-21T10:44:40.094Z,18.10
2018-09-21T10:45:40.079Z,19.30
2018-09-21T10:46:40.061Z,18.50
2018-09-21T10:47:40.044Z,13.90
2018-09-21T10:48:40.029Z,20.60
2018-09-21T10:49:40.012Z,12.70
2018-09-21T10:50:39.996Z,10.20
2018-09-21T10:51:39.981Z,17.70
2018-09-21T10:52:40.020Z,16.00
2018-09-21T10:53:39.950Z,16.20
2018-09-21T10:54:39.933Z,15.50
2018-09-21T10:55:39.918Z,12.60
2018-09-21T10:56:39.901Z,16.80
2018-09-21T10:57:39.883Z,13.50
2018-09-21T10:58:39.877Z,11.00
2018-09-21T10:59:39.850Z,15.50
2018-09-21T11:00:39.890Z,11.90
2018-09-21T11:01:39.817Z,15.80
2018-09-21T11:02:39.802Z,14.50
2018-09-21T11:03:39.785Z,9.90
2018-09-21T11:04:39.774Z,14.20
2018-09-21T11:05:39.752Z,17.10
2018-09-21T11:06:39.737Z,19.30
2018-09-21T11:07:39.718Z,9.30
2018-09-21T11:08:39.704Z,8.70
2018-09-21T11:09:39.685Z,10.50
2018-09-21T11:10:39.671Z,13.80
2018-09-21T11:11:39.654Z,11.10
2018-09-21T11:12:39.637Z,12.90
2018-09-21T11:13:39.623Z,11.50
2018-09-21T11:14:39.604Z,11.50
2018-09-21T11:15:39.588Z,11.10
2018-09-21T11:16:39.569Z,9.80
2018-09-21T11:17:39.555Z,9.90
2018-09-21T11:18:39.537Z,11.00
2018-09-21T11:19:39.520Z,10.30
2018-09-21T11:20:39.508Z,8.00
2018-09-21T11:21:39.486Z,15.10
2018-09-21T11:22:39.472Z,8.30
2018-09-21T11:23:39.454Z,9.00
2018-09-21T11:24:39.439Z,11.20
2018-09-21T11:25:39.422Z,10.60
2018-09-21T11:26:39.405Z,14.00
2018-09-21T11:27:39.389Z,9.40
2018-09-21T11:28:39.371Z,12.00
2018-09-21T11:29:39.355Z,14.00
2018-09-21T11:30:39.339Z,14.40
2018-09-21T11:31:39.324Z,12.10
2018-09-21T11:32:39.306Z,7.30
2018-09-21T11:33:39.293Z,8.80
2018-09-21T11:34:39.273Z,12.20
2018-09-21T11:35:39.257Z,11.80
2018-09-21T11:36:39.246Z,13.70
2018-09-21T11:37:39.222Z,10.40
2018-09-21T11:38:39.208Z,14.20
2018-09-21T11:39:39.191Z,10.30
2018-09-21T11:40:39.176Z,14.20
2018-09-21T11:41:39.159Z,17.30
2018-09-21T11:42:39.144Z,14.60
2018-09-21T11:43:39.126Z,13.00
2018-09-21T11:44:39.109Z,13.50
2018-09-21T11:45:39.093Z,15.80
2018-09-21T11:46:39.107Z,10.80
2018-09-21T11:47:39.128Z,8.10
2018-09-21T11:48:39.044Z,17.90
2018-09-21T11:49:39.029Z,18.30
2018-09-21T11:50:39.013Z,10.40
2018-09-21T11:51:38.996Z,16.40
2018-09-21T11:52:38.981Z,21.50
2018-09-21T11:53:38.964Z,13.80
2018-09-21T11:54:38.947Z,11.60
2018-09-21T11:55:38.933Z,14.30
2018-09-21T11:56:38.917Z,16.50
2018-09-21T11:57:38.901Z,16.10
2018-09-21T11:58:38.888Z,18.30
2018-09-21T11:59:38.869Z,19.30
2018-09-21T12:00:38.853Z,16.90
2018-09-21T12:01:38.858Z,21.00
2018-09-21T12:02:38.825Z,21.90
2018-09-21T12:03:38.806Z,15.80
2018-09-21T12:04:38.790Z,13.70
2018-09-21T12:05:38.775Z,24.90
2018-09-21T12:06:38.758Z,18.20
2018-09-21T12:07:38.744Z,15.10
2018-09-21T12:08:38.728Z,16.50
2018-09-21T12:09:38.713Z,15.30
2018-09-21T12:10:38.713Z,9.00
2018-09-21T12:11:38.680Z,23.50
2018-09-21T12:12:38.665Z,14.60
2018-09-21T12:13:38.651Z,18.30
2018-09-21T12:14:38.633Z,19.70
2018-09-21T12:15:38.617Z,16.00
2018-09-21T12:16:38.600Z,16.10
2018-09-21T12:17:38.585Z,13.20
2018-09-21T12:18:38.568Z,12.70
2018-09-21T12:19:38.556Z,14.40
2018-09-21T12:20:38.537Z,14.90
2018-09-21T12:21:38.520Z,16.40
2018-09-21T12:22:38.517Z,11.30
2018-09-21T12:23:38.486Z,21.00
2018-09-21T12:24:38.470Z,18.80
2018-09-21T12:25:38.456Z,16.20
2018-09-21T12:26:38.440Z,19.00
2018-09-21T12:27:38.433Z,16.50
2018-09-21T12:28:38.406Z,21.50
2018-09-21T12:29:38.390Z,15.00
2018-09-21T12:30:38.375Z,15.00
2018-09-21T12:31:38.357Z,11.00
2018-09-21T12:32:38.337Z,14.00
2018-09-21T12:33:38.319Z,15.00
2018-09-21T12:34:38.305Z,11.20
2018-09-21T12:35:38.286Z,10.20
2018-09-21T12:36:38.265Z,11.80
2018-09-21T12:37:38.245Z,9.00
2018-09-21T12:38:38.290Z,8.90
2018-09-21T12:39:38.206Z,10.30
2018-09-21T12:40:38.187Z,10.90
2018-09-21T12:41:38.168Z,10.30
2018-09-21T12:42:38.213Z,9.80
2018-09-21T12:43:38.129Z,9.00
2018-09-21T12:44:38.143Z,13.30
2018-09-21T12:45:38.089Z,9.80
2018-09-21T12:46:38.068Z,8.90
2018-09-21T12:47:38.047Z,8.40
2018-09-21T12:48:38.027Z,9.20
2018-09-21T12:49:38.006Z,9.30
2018-09-21T12:50:38.032Z,12.10
2018-09-21T12:51:37.966Z,9.50
2018-09-21T12:52:37.946Z,10.50
2018-09-21T12:53:37.922Z,10.30
2018-09-21T12:54:37.900Z,9.00
2018-09-21T12:55:37.880Z,9.70
2018-09-21T12:56:37.940Z,9.40
2018-09-21T12:57:37.906Z,8.00
2018-09-21T12:58:37.869Z,8.70
2018-09-21T12:59:37.795Z,9.30
2018-09-21T13:00:37.772Z,6.60
2018-09-21T13:01:37.752Z,8.10
2018-09-21T13:02:37.790Z,5.80
2018-09-21T13:03:37.709Z,7.30
2018-09-21T13:04:37.686Z,7.90
2018-09-21T13:05:37.666Z,6.80
2018-09-21T13:06:37.645Z,7.20
2018-09-21T13:07:37.621Z,5.60